Aérodrome :







RETROUVEZ-NOUS SUR...

 
LOGIN :

S'inscrire | Disclaimer

   EN    FR    IT 

 









Légende :    VFR   VFR Marginal   IFR   IFR Intensif   IFR Très Intensif
Visi : 
Plafond : 
>= 8 km
>= 3000ft
5 à 8 km
1000 à 3000 ft
1500m à 5 km
500 à 1000 ft
800 à 1500m
200 à 500 ft
< 800m
< 200 ft
Symboles :   Orages  Brouillard  Fortes neiges  Fortes précipitations  Vent > 20 kt






- Altitude de l'aérodrome : 133 ft
- Code IATA : BED


KBED - Laurence G Hanscom Field

DERNIER METAR :
  • 150951Z AUTO 26012G24KT 10SM SCT040 OVC110 06/M02 A2933 RMK AO2 SLP947 T00611017

METARs EXPIRÉS :
  • 150851Z AUTO 25011G21KT 10SM OVC100 06/M01 A2930 RMK AO2 SLP935 T00611011 51043
  • 150751Z AUTO 26010G22KT 10SM CLR 06/M01 A2927 RMK AO2 SLP925 T00561011

TAF KBED
Valide du 15 à 06h jusqu'au 16 à 06h UTC


150539Z 1506/1606 24013G27KT P6SM SCT025 BKN040
FM150800 25013G29KT P6SM BKN040
FM151400 26019G37KT P6SM SCT040
FM160000 27016G27KT P6SM FEW250
FM160500 27012G22KT P6SM FEW200



MET'MAP, la Météo Aéronautique d'un coup d'oeil ! - Copyright ORBIFLY Décembre 2007 - Disclaimer

ORBIFLY MET'MAP TEAM :

Programmation & Développement : Alexandra Zaïnal
Sur une idée originale de : Baudouin d'Aumeries
Assistance à la programmation : Marc-Olivier Méhu
Soutien technique & logistique : Manuel Goepfert

Contact : metmap@orbifly.com




SOURCES & CREDITS :

   NOAA